Location Sebastian, FL, US

ob KFLSEBAS1 261510Z AUTO 11004G09KT CLR 27/24 A3000 RMK SLPNO 

2018.05.26 1510 UTC
Wind from the ESE (105 degrees) at 5.0 MPH (4 KT) gusting to 10.0 MPH (9 KT)
Visibility    Mile(s)
Sky Conditions  clear
Temperature 80.90 F (27 C)
Dew Point 74.53 F (24 C)
Relative Humidity 81%
Pressure   30.00 in. Hg (1016 hPa)
Rain  0.00 in.
Daily Rain  in.

Station Name  Memory Makers, Inc.
Longitude, Latitude  -80.48, 27.8
Elevation 23
Station URL www.kflsebas1.com
Software Type VWS V15.00